sensor_id;sensor_type;location;lat;lon;timestamp;temperature;humidity
47805;DHT22;33568;45.286;9.900;2022-11-27T00:00:28;6.90;99.10
47805;DHT22;33568;45.286;9.900;2022-11-27T00:02:54;6.90;99.00
47805;DHT22;33568;45.286;9.900;2022-11-27T00:05:20;6.90;99.00
47805;DHT22;33568;45.286;9.900;2022-11-27T00:07:47;6.80;99.00
47805;DHT22;33568;45.286;9.900;2022-11-27T00:10:13;6.80;98.90
47805;DHT22;33568;45.286;9.900;2022-11-27T00:12:39;6.80;98.80
47805;DHT22;33568;45.286;9.900;2022-11-27T00:15:06;6.80;98.80
47805;DHT22;33568;45.286;9.900;2022-11-27T00:17:33;6.80;98.80
47805;DHT22;33568;45.286;9.900;2022-11-27T00:19:59;6.80;98.80
47805;DHT22;33568;45.286;9.900;2022-11-27T00:22:25;6.70;98.70
47805;DHT22;33568;45.286;9.900;2022-11-27T00:24:53;6.70;98.80
47805;DHT22;33568;45.286;9.900;2022-11-27T00:27:19;6.70;98.90
47805;DHT22;33568;45.286;9.900;2022-11-27T00:29:45;6.60;99.10
47805;DHT22;33568;45.286;9.900;2022-11-27T00:32:12;6.70;99.10
47805;DHT22;33568;45.286;9.900;2022-11-27T00:34:38;6.70;99.00
47805;DHT22;33568;45.286;9.900;2022-11-27T00:37:05;6.70;98.90
47805;DHT22;33568;45.286;9.900;2022-11-27T00:39:32;6.60;99.00
47805;DHT22;33568;45.286;9.900;2022-11-27T00:41:58;6.70;99.00
47805;DHT22;33568;45.286;9.900;2022-11-27T00:44:25;6.70;99.00
47805;DHT22;33568;45.286;9.900;2022-11-27T00:46:51;6.70;99.00
47805;DHT22;33568;45.286;9.900;2022-11-27T00:49:18;6.70;99.00
47805;DHT22;33568;45.286;9.900;2022-11-27T00:51:44;6.70;98.90
47805;DHT22;33568;45.286;9.900;2022-11-27T00:54:10;6.70;98.90
47805;DHT22;33568;45.286;9.900;2022-11-27T00:56:38;6.70;98.90
47805;DHT22;33568;45.286;9.900;2022-11-27T00:59:05;6.60;98.90
47805;DHT22;33568;45.286;9.900;2022-11-27T01:01:36;6.60;98.80
47805;DHT22;33568;45.286;9.900;2022-11-27T01:04:04;6.60;98.80
47805;DHT22;33568;45.286;9.900;2022-11-27T01:06:31;6.60;98.80
47805;DHT22;33568;45.286;9.900;2022-11-27T01:08:57;6.60;98.80
47805;DHT22;33568;45.286;9.900;2022-11-27T01:11:29;6.50;98.80
47805;DHT22;33568;45.286;9.900;2022-11-27T01:14:02;6.50;98.80
47805;DHT22;33568;45.286;9.900;2022-11-27T01:16:31;6.60;98.80
47805;DHT22;33568;45.286;9.900;2022-11-27T01:18:59;6.60;98.70
47805;DHT22;33568;45.286;9.900;2022-11-27T01:21:29;6.50;98.60
47805;DHT22;33568;45.286;9.900;2022-11-27T01:23:56;6.50;98.60
47805;DHT22;33568;45.286;9.900;2022-11-27T01:26:22;6.50;98.50
47805;DHT22;33568;45.286;9.900;2022-11-27T01:28:53;6.40;98.50
47805;DHT22;33568;45.286;9.900;2022-11-27T01:31:22;6.30;98.60
47805;DHT22;33568;45.286;9.900;2022-11-27T01:33:53;6.40;98.60
47805;DHT22;33568;45.286;9.900;2022-11-27T01:36:20;6.30;98.50
47805;DHT22;33568;45.286;9.900;2022-11-27T01:38:46;6.20;98.60
47805;DHT22;33568;45.286;9.900;2022-11-27T01:41:16;6.20;98.60
47805;DHT22;33568;45.286;9.900;2022-11-27T01:46:42;6.20;98.70
47805;DHT22;33568;45.286;9.900;2022-11-27T01:54:03;6.10;98.60
47805;DHT22;33568;45.286;9.900;2022-11-27T01:56:30;6.00;98.60
47805;DHT22;33568;45.286;9.900;2022-11-27T01:58:57;6.00;98.50
47805;DHT22;33568;45.286;9.900;2022-11-27T02:01:24;6.00;98.60
47805;DHT22;33568;45.286;9.900;2022-11-27T02:03:58;6.00;98.60
47805;DHT22;33568;45.286;9.900;2022-11-27T02:06:25;6.00;98.50
47805;DHT22;33568;45.286;9.900;2022-11-27T02:08:52;5.90;98.50
47805;DHT22;33568;45.286;9.900;2022-11-27T02:16:50;5.90;98.50
47805;DHT22;33568;45.286;9.900;2022-11-27T02:22:02;5.80;98.70
47805;DHT22;33568;45.286;9.900;2022-11-27T02:24:49;5.80;98.60
47805;DHT22;33568;45.286;9.900;2022-11-27T02:27:53;5.80;98.60
47805;DHT22;33568;45.286;9.900;2022-11-27T02:30:13;5.80;98.60
47805;DHT22;33568;45.286;9.900;2022-11-27T02:32:59;5.80;98.60
47805;DHT22;33568;45.286;9.900;2022-11-27T02:37:59;5.80;98.60
47805;DHT22;33568;45.286;9.900;2022-11-27T02:40:32;5.80;98.60
47805;DHT22;33568;45.286;9.900;2022-11-27T02:43:22;5.80;98.50
47805;DHT22;33568;45.286;9.900;2022-11-27T02:45:50;5.80;98.50
47805;DHT22;33568;45.286;9.900;2022-11-27T02:48:22;5.90;98.50
47805;DHT22;33568;45.286;9.900;2022-11-27T02:50:51;5.90;98.50
47805;DHT22;33568;45.286;9.900;2022-11-27T02:53:23;5.80;98.40
47805;DHT22;33568;45.286;9.900;2022-11-27T02:55:52;5.80;98.40
47805;DHT22;33568;45.286;9.900;2022-11-27T02:58:23;5.80;98.40
47805;DHT22;33568;45.286;9.900;2022-11-27T03:00:51;5.80;98.50
47805;DHT22;33568;45.286;9.900;2022-11-27T03:03:21;5.80;98.50
47805;DHT22;33568;45.286;9.900;2022-11-27T03:05:51;5.80;98.50
47805;DHT22;33568;45.286;9.900;2022-11-27T03:08:24;5.80;98.50
47805;DHT22;33568;45.286;9.900;2022-11-27T03:11:06;5.80;98.60
47805;DHT22;33568;45.286;9.900;2022-11-27T03:13:37;5.80;98.60
47805;DHT22;33568;45.286;9.900;2022-11-27T03:21:57;5.80;98.60
47805;DHT22;33568;45.286;9.900;2022-11-27T03:24:26;5.80;98.60
47805;DHT22;33568;45.286;9.900;2022-11-27T03:26:52;5.70;98.60
47805;DHT22;33568;45.286;9.900;2022-11-27T03:29:26;5.70;98.50
47805;DHT22;33568;45.286;9.900;2022-11-27T03:31:55;5.70;98.60
47805;DHT22;33568;45.286;9.900;2022-11-27T03:34:22;5.70;98.60
47805;DHT22;33568;45.286;9.900;2022-11-27T03:36:48;5.70;98.60
47805;DHT22;33568;45.286;9.900;2022-11-27T03:39:15;5.70;98.70
47805;DHT22;33568;45.286;9.900;2022-11-27T03:49:49;5.80;98.60
47805;DHT22;33568;45.286;9.900;2022-11-27T03:55:07;5.60;98.60
47805;DHT22;33568;45.286;9.900;2022-11-27T03:58:39;5.70;98.80
47805;DHT22;33568;45.286;9.900;2022-11-27T04:00:47;5.60;98.60
47805;DHT22;33568;45.286;9.900;2022-11-27T04:03:25;5.60;98.80
47805;DHT22;33568;45.286;9.900;2022-11-27T04:05:52;5.70;98.80
47805;DHT22;33568;45.286;9.900;2022-11-27T04:08:19;5.70;98.80
47805;DHT22;33568;45.286;9.900;2022-11-27T04:10:46;5.70;98.80
47805;DHT22;33568;45.286;9.900;2022-11-27T04:13:13;5.70;98.90
47805;DHT22;33568;45.286;9.900;2022-11-27T04:15:40;5.70;98.90
47805;DHT22;33568;45.286;9.900;2022-11-27T04:18:06;5.70;98.90
47805;DHT22;33568;45.286;9.900;2022-11-27T04:20:33;5.70;98.80
47805;DHT22;33568;45.286;9.900;2022-11-27T04:22:59;5.80;98.80
47805;DHT22;33568;45.286;9.900;2022-11-27T04:25:25;5.70;98.80
47805;DHT22;33568;45.286;9.900;2022-11-27T04:27:52;5.70;98.90
47805;DHT22;33568;45.286;9.900;2022-11-27T04:30:19;5.70;98.80
47805;DHT22;33568;45.286;9.900;2022-11-27T04:32:45;5.70;98.70
47805;DHT22;33568;45.286;9.900;2022-11-27T04:35:12;5.60;98.60
47805;DHT22;33568;45.286;9.900;2022-11-27T04:37:38;5.60;98.60
47805;DHT22;33568;45.286;9.900;2022-11-27T04:40:05;5.60;98.60
47805;DHT22;33568;45.286;9.900;2022-11-27T04:42:31;5.50;98.50
47805;DHT22;33568;45.286;9.900;2022-11-27T04:44:57;5.50;98.60
47805;DHT22;33568;45.286;9.900;2022-11-27T04:47:24;5.50;98.60
47805;DHT22;33568;45.286;9.900;2022-11-27T04:49:50;5.50;98.60
47805;DHT22;33568;45.286;9.900;2022-11-27T04:52:16;5.50;98.60
47805;DHT22;33568;45.286;9.900;2022-11-27T04:54:43;5.50;98.50
47805;DHT22;33568;45.286;9.900;2022-11-27T04:57:09;5.50;98.50
47805;DHT22;33568;45.286;9.900;2022-11-27T04:59:35;5.40;98.40
47805;DHT22;33568;45.286;9.900;2022-11-27T05:02:03;5.40;98.50
47805;DHT22;33568;45.286;9.900;2022-11-27T05:04:29;5.40;98.70
47805;DHT22;33568;45.286;9.900;2022-11-27T05:06:56;5.30;98.40
47805;DHT22;33568;45.286;9.900;2022-11-27T05:09:22;5.30;98.60
47805;DHT22;33568;45.286;9.900;2022-11-27T05:11:49;5.30;98.50
47805;DHT22;33568;45.286;9.900;2022-11-27T05:14:15;5.20;98.40
47805;DHT22;33568;45.286;9.900;2022-11-27T05:16:53;5.30;98.50
47805;DHT22;33568;45.286;9.900;2022-11-27T05:19:21;5.30;98.50
47805;DHT22;33568;45.286;9.900;2022-11-27T05:21:48;5.40;98.60
47805;DHT22;33568;45.286;9.900;2022-11-27T05:24:17;5.40;98.50
47805;DHT22;33568;45.286;9.900;2022-11-27T05:26:43;5.40;98.50
47805;DHT22;33568;45.286;9.900;2022-11-27T05:29:10;5.40;98.50
47805;DHT22;33568;45.286;9.900;2022-11-27T05:31:36;5.40;98.50
47805;DHT22;33568;45.286;9.900;2022-11-27T05:34:03;5.40;98.60
47805;DHT22;33568;45.286;9.900;2022-11-27T05:36:30;5.40;98.50
47805;DHT22;33568;45.286;9.900;2022-11-27T05:38:57;5.40;98.50
47805;DHT22;33568;45.286;9.900;2022-11-27T05:41:24;5.40;98.50
47805;DHT22;33568;45.286;9.900;2022-11-27T05:43:51;5.40;98.40
47805;DHT22;33568;45.286;9.900;2022-11-27T05:46:19;5.40;98.50
47805;DHT22;33568;45.286;9.900;2022-11-27T05:48:46;5.40;98.50
47805;DHT22;33568;45.286;9.900;2022-11-27T05:51:13;5.30;98.50
47805;DHT22;33568;45.286;9.900;2022-11-27T05:53:40;5.30;98.50
47805;DHT22;33568;45.286;9.900;2022-11-27T05:56:14;5.30;98.50
47805;DHT22;33568;45.286;9.900;2022-11-27T05:58:42;5.30;98.50
47805;DHT22;33568;45.286;9.900;2022-11-27T06:01:09;5.30;98.50
47805;DHT22;33568;45.286;9.900;2022-11-27T06:03:36;5.20;98.40
47805;DHT22;33568;45.286;9.900;2022-11-27T06:06:07;5.20;98.50
47805;DHT22;33568;45.286;9.900;2022-11-27T06:08:36;5.20;98.60
47805;DHT22;33568;45.286;9.900;2022-11-27T06:11:06;5.20;98.60
47805;DHT22;33568;45.286;9.900;2022-11-27T06:13:34;5.30;98.60
47805;DHT22;33568;45.286;9.900;2022-11-27T06:16:13;5.30;98.90
47805;DHT22;33568;45.286;9.900;2022-11-27T06:18:39;5.30;98.60
47805;DHT22;33568;45.286;9.900;2022-11-27T06:21:11;5.30;98.60
47805;DHT22;33568;45.286;9.900;2022-11-27T06:23:38;5.30;98.50
47805;DHT22;33568;45.286;9.900;2022-11-27T06:26:16;5.30;98.50
47805;DHT22;33568;45.286;9.900;2022-11-27T06:28:44;5.30;98.50
47805;DHT22;33568;45.286;9.900;2022-11-27T06:31:14;5.20;98.50
47805;DHT22;33568;45.286;9.900;2022-11-27T06:33:41;5.30;98.50
47805;DHT22;33568;45.286;9.900;2022-11-27T06:36:08;5.20;98.50
47805;DHT22;33568;45.286;9.900;2022-11-27T06:38:36;5.20;98.50
47805;DHT22;33568;45.286;9.900;2022-11-27T06:41:07;5.30;98.60
47805;DHT22;33568;45.286;9.900;2022-11-27T06:43:34;5.30;98.60
47805;DHT22;33568;45.286;9.900;2022-11-27T06:46:02;5.30;98.60
47805;DHT22;33568;45.286;9.900;2022-11-27T06:48:30;5.20;98.60
47805;DHT22;33568;45.286;9.900;2022-11-27T06:51:05;5.30;98.60
47805;DHT22;33568;45.286;9.900;2022-11-27T06:53:34;5.30;98.60
47805;DHT22;33568;45.286;9.900;2022-11-27T06:56:02;5.20;98.60
47805;DHT22;33568;45.286;9.900;2022-11-27T06:58:29;5.30;98.50
47805;DHT22;33568;45.286;9.900;2022-11-27T07:00:59;5.30;98.50
47805;DHT22;33568;45.286;9.900;2022-11-27T07:03:26;5.30;98.60
47805;DHT22;33568;45.286;9.900;2022-11-27T07:05:53;5.40;98.60
47805;DHT22;33568;45.286;9.900;2022-11-27T07:08:20;5.30;98.60
47805;DHT22;33568;45.286;9.900;2022-11-27T07:10:48;5.40;98.70
47805;DHT22;33568;45.286;9.900;2022-11-27T07:13:15;5.40;98.70
47805;DHT22;33568;45.286;9.900;2022-11-27T07:15:42;5.50;98.70
47805;DHT22;33568;45.286;9.900;2022-11-27T07:18:09;5.50;98.70
47805;DHT22;33568;45.286;9.900;2022-11-27T07:20:35;5.60;98.70
47805;DHT22;33568;45.286;9.900;2022-11-27T07:23:01;5.50;98.70
47805;DHT22;33568;45.286;9.900;2022-11-27T07:25:27;5.60;98.80
47805;DHT22;33568;45.286;9.900;2022-11-27T07:27:54;5.70;98.60
47805;DHT22;33568;45.286;9.900;2022-11-27T07:30:21;5.80;98.60
47805;DHT22;33568;45.286;9.900;2022-11-27T07:32:47;5.80;98.50
47805;DHT22;33568;45.286;9.900;2022-11-27T07:35:13;5.90;98.50
47805;DHT22;33568;45.286;9.900;2022-11-27T07:37:40;5.90;98.40
47805;DHT22;33568;45.286;9.900;2022-11-27T07:40:06;6.00;98.30
47805;DHT22;33568;45.286;9.900;2022-11-27T07:42:33;6.00;98.30
47805;DHT22;33568;45.286;9.900;2022-11-27T07:44:59;6.00;98.20
47805;DHT22;33568;45.286;9.900;2022-11-27T07:47:26;6.10;98.20
47805;DHT22;33568;45.286;9.900;2022-11-27T07:49:54;6.10;98.40
47805;DHT22;33568;45.286;9.900;2022-11-27T07:52:23;6.10;98.10
47805;DHT22;33568;45.286;9.900;2022-11-27T07:54:49;6.10;98.10
47805;DHT22;33568;45.286;9.900;2022-11-27T07:57:15;6.10;98.00
47805;DHT22;33568;45.286;9.900;2022-11-27T07:59:42;6.20;98.00
47805;DHT22;33568;45.286;9.900;2022-11-27T08:02:12;6.20;98.00
47805;DHT22;33568;45.286;9.900;2022-11-27T08:04:38;6.30;98.00
47805;DHT22;33568;45.286;9.900;2022-11-27T08:07:05;6.30;98.00
47805;DHT22;33568;45.286;9.900;2022-11-27T08:09:31;6.30;97.90
47805;DHT22;33568;45.286;9.900;2022-11-27T08:11:57;6.40;98.20
47805;DHT22;33568;45.286;9.900;2022-11-27T08:14:23;6.50;98.20
47805;DHT22;33568;45.286;9.900;2022-11-27T08:16:50;6.60;98.20
47805;DHT22;33568;45.286;9.900;2022-11-27T08:19:16;6.60;98.20
47805;DHT22;33568;45.286;9.900;2022-11-27T08:21:43;6.60;98.10
47805;DHT22;33568;45.286;9.900;2022-11-27T08:24:09;6.70;98.20
47805;DHT22;33568;45.286;9.900;2022-11-27T08:26:35;6.80;98.20
47805;DHT22;33568;45.286;9.900;2022-11-27T08:29:02;6.90;98.10
47805;DHT22;33568;45.286;9.900;2022-11-27T08:31:28;7.00;98.10
47805;DHT22;33568;45.286;9.900;2022-11-27T08:33:55;6.90;97.90
47805;DHT22;33568;45.286;9.900;2022-11-27T08:36:24;7.10;98.00
47805;DHT22;33568;45.286;9.900;2022-11-27T08:38:52;7.10;97.90
47805;DHT22;33568;45.286;9.900;2022-11-27T08:41:18;7.10;97.90
47805;DHT22;33568;45.286;9.900;2022-11-27T08:43:44;7.20;98.00
47805;DHT22;33568;45.286;9.900;2022-11-27T08:46:11;7.30;97.90
47805;DHT22;33568;45.286;9.900;2022-11-27T08:48:37;7.20;97.50
47805;DHT22;33568;45.286;9.900;2022-11-27T08:51:11;7.30;98.00
47805;DHT22;33568;45.286;9.900;2022-11-27T08:53:38;7.30;98.00
47805;DHT22;33568;45.286;9.900;2022-11-27T08:56:07;7.40;98.10
47805;DHT22;33568;45.286;9.900;2022-11-27T08:58:33;7.50;97.90
47805;DHT22;33568;45.286;9.900;2022-11-27T09:01:07;7.50;97.80
47805;DHT22;33568;45.286;9.900;2022-11-27T09:03:33;7.60;97.70
47805;DHT22;33568;45.286;9.900;2022-11-27T09:06:00;7.70;97.60
47805;DHT22;33568;45.286;9.900;2022-11-27T09:08:26;7.80;97.40
47805;DHT22;33568;45.286;9.900;2022-11-27T09:10:52;7.90;97.30
47805;DHT22;33568;45.286;9.900;2022-11-27T09:13:19;7.90;96.70
47805;DHT22;33568;45.286;9.900;2022-11-27T09:15:45;8.10;97.20
47805;DHT22;33568;45.286;9.900;2022-11-27T09:18:12;8.20;96.90
47805;DHT22;33568;45.286;9.900;2022-11-27T09:20:38;8.20;96.30
47805;DHT22;33568;45.286;9.900;2022-11-27T09:23:04;8.40;96.90
47805;DHT22;33568;45.286;9.900;2022-11-27T09:25:31;8.60;96.70
47805;DHT22;33568;45.286;9.900;2022-11-27T09:27:57;8.70;96.50
47805;DHT22;33568;45.286;9.900;2022-11-27T09:30:23;8.90;96.40
47805;DHT22;33568;45.286;9.900;2022-11-27T09:32:51;9.70;96.80
47805;DHT22;33568;45.286;9.900;2022-11-27T09:35:17;12.00;95.10
47805;DHT22;33568;45.286;9.900;2022-11-27T09:37:43;14.60;91.10
47805;DHT22;33568;45.286;9.900;2022-11-27T09:40:14;16.80;77.60
47805;DHT22;33568;45.286;9.900;2022-11-27T09:42:52;18.90;77.50
47805;DHT22;33568;45.286;9.900;2022-11-27T09:45:21;20.60;70.80
47805;DHT22;33568;45.286;9.900;2022-11-27T09:48:04;21.90;66.80
47805;DHT22;33568;45.286;9.900;2022-11-27T09:50:41;23.00;58.20
47805;DHT22;33568;45.286;9.900;2022-11-27T09:55:52;24.80;56.70
47805;DHT22;33568;45.286;9.900;2022-11-27T09:58:39;25.40;54.70
47805;DHT22;33568;45.286;9.900;2022-11-27T10:01:16;26.10;52.60
47805;DHT22;33568;45.286;9.900;2022-11-27T10:03:44;26.50;50.00
47805;DHT22;33568;45.286;9.900;2022-11-27T10:06:31;27.00;50.00
47805;DHT22;33568;45.286;9.900;2022-11-27T10:23:31;28.30;43.80
47805;DHT22;33568;45.286;9.900;2022-11-27T10:25:51;27.70;42.40
47805;DHT22;33568;45.286;9.900;2022-11-27T10:31:01;28.30;44.30
47805;DHT22;33568;45.286;9.900;2022-11-27T10:36:35;29.20;40.20
47805;DHT22;33568;45.286;9.900;2022-11-27T10:39:10;28.90;39.60
47805;DHT22;33568;45.286;9.900;2022-11-27T10:41:55;29.20;41.80
47805;DHT22;33568;45.286;9.900;2022-11-27T10:44:31;29.50;40.50
47805;DHT22;33568;45.286;9.900;2022-11-27T10:47:03;29.80;40.30
47805;DHT22;33568;45.286;9.900;2022-11-27T10:49:30;29.70;40.20
47805;DHT22;33568;45.286;9.900;2022-11-27T10:51:58;29.70;40.60
47805;DHT22;33568;45.286;9.900;2022-11-27T10:54:27;29.90;40.30
47805;DHT22;33568;45.286;9.900;2022-11-27T11:02:37;30.60;37.00
47805;DHT22;33568;45.286;9.900;2022-11-27T11:07:54;30.50;37.80
47805;DHT22;33568;45.286;9.900;2022-11-27T11:10:28;30.00;38.00
47805;DHT22;33568;45.286;9.900;2022-11-27T11:15:53;30.10;37.90
47805;DHT22;33568;45.286;9.900;2022-11-27T11:18:25;29.80;38.00
47805;DHT22;33568;45.286;9.900;2022-11-27T11:21:05;30.10;38.80
47805;DHT22;33568;45.286;9.900;2022-11-27T11:23:35;30.50;38.30
47805;DHT22;33568;45.286;9.900;2022-11-27T11:26:46;30.50;38.70
47805;DHT22;33568;45.286;9.900;2022-11-27T11:28:55;29.80;38.70
47805;DHT22;33568;45.286;9.900;2022-11-27T11:31:29;29.50;39.50
47805;DHT22;33568;45.286;9.900;2022-11-27T11:33:59;29.60;39.10
47805;DHT22;33568;45.286;9.900;2022-11-27T11:36:26;30.00;39.40
47805;DHT22;33568;45.286;9.900;2022-11-27T11:38:53;30.60;38.70
47805;DHT22;33568;45.286;9.900;2022-11-27T11:41:20;31.10;38.10
47805;DHT22;33568;45.286;9.900;2022-11-27T11:44:00;31.10;37.80
47805;DHT22;33568;45.286;9.900;2022-11-27T11:46:30;30.60;36.80
47805;DHT22;33568;45.286;9.900;2022-11-27T11:49:13;29.80;37.90
47805;DHT22;33568;45.286;9.900;2022-11-27T12:00:14;31.10;35.90
47805;DHT22;33568;45.286;9.900;2022-11-27T12:25:09;18.60;49.00
47805;DHT22;33568;45.286;9.900;2022-11-27T12:33:46;16.10;53.30
47805;DHT22;33568;45.286;9.900;2022-11-27T12:38:57;15.50;55.10
47805;DHT22;33568;45.286;9.900;2022-11-27T12:47:10;14.70;58.20
47805;DHT22;33568;45.286;9.900;2022-11-27T12:49:47;14.60;58.40
47805;DHT22;33568;45.286;9.900;2022-11-27T12:52:20;14.50;58.80
47805;DHT22;33568;45.286;9.900;2022-11-27T12:57:45;14.30;59.80
47805;DHT22;33568;45.286;9.900;2022-11-27T13:00:16;14.30;60.50
47805;DHT22;33568;45.286;9.900;2022-11-27T13:02:58;14.20;60.90
47805;DHT22;33568;45.286;9.900;2022-11-27T13:05:43;14.10;61.50
47805;DHT22;33568;45.286;9.900;2022-11-27T13:08:28;14.10;62.00
47805;DHT22;33568;45.286;9.900;2022-11-27T13:11:00;14.10;62.40
47805;DHT22;33568;45.286;9.900;2022-11-27T13:13:39;14.00;62.50
47805;DHT22;33568;45.286;9.900;2022-11-27T13:21:33;14.00;64.00
47805;DHT22;33568;45.286;9.900;2022-11-27T13:24:01;14.00;64.30
47805;DHT22;33568;45.286;9.900;2022-11-27T13:26:39;14.00;64.40
47805;DHT22;33568;45.286;9.900;2022-11-27T13:29:28;13.90;64.60
47805;DHT22;33568;45.286;9.900;2022-11-27T13:31:59;13.90;65.00
47805;DHT22;33568;45.286;9.900;2022-11-27T13:34:28;13.90;64.80
47805;DHT22;33568;45.286;9.900;2022-11-27T13:37:04;13.90;64.70
47805;DHT22;33568;45.286;9.900;2022-11-27T13:40:00;13.90;64.70
47805;DHT22;33568;45.286;9.900;2022-11-27T13:42:29;13.80;65.00
47805;DHT22;33568;45.286;9.900;2022-11-27T13:45:03;13.80;65.10
47805;DHT22;33568;45.286;9.900;2022-11-27T13:47:39;13.90;65.30
47805;DHT22;33568;45.286;9.900;2022-11-27T13:50:13;13.80;65.90
47805;DHT22;33568;45.286;9.900;2022-11-27T13:53:01;13.80;65.50
47805;DHT22;33568;45.286;9.900;2022-11-27T13:55:32;13.70;65.00
47805;DHT22;33568;45.286;9.900;2022-11-27T13:58:00;13.70;65.40
47805;DHT22;33568;45.286;9.900;2022-11-27T14:03:04;13.60;65.40
47805;DHT22;33568;45.286;9.900;2022-11-27T14:05:44;13.60;65.60
47805;DHT22;33568;45.286;9.900;2022-11-27T14:10:58;13.60;65.60
47805;DHT22;33568;45.286;9.900;2022-11-27T14:13:51;13.60;66.00
47805;DHT22;33568;45.286;9.900;2022-11-27T14:18:53;13.60;66.60
47805;DHT22;33568;45.286;9.900;2022-11-27T14:21:25;13.60;66.90
47805;DHT22;33568;45.286;9.900;2022-11-27T14:23:54;13.60;67.00
47805;DHT22;33568;45.286;9.900;2022-11-27T14:26:22;13.60;67.30
47805;DHT22;33568;45.286;9.900;2022-11-27T14:28:53;13.40;68.20
47805;DHT22;33568;45.286;9.900;2022-11-27T14:31:29;13.50;67.70
47805;DHT22;33568;45.286;9.900;2022-11-27T14:33:56;13.40;67.70
47805;DHT22;33568;45.286;9.900;2022-11-27T14:36:31;13.40;68.10
47805;DHT22;33568;45.286;9.900;2022-11-27T14:39:03;13.40;68.60
47805;DHT22;33568;45.286;9.900;2022-11-27T14:41:30;13.30;68.90
47805;DHT22;33568;45.286;9.900;2022-11-27T14:44:05;13.30;69.30
47805;DHT22;33568;45.286;9.900;2022-11-27T14:46:35;13.30;69.70
47805;DHT22;33568;45.286;9.900;2022-11-27T14:49:02;13.20;69.90
47805;DHT22;33568;45.286;9.900;2022-11-27T14:51:31;13.20;70.30
47805;DHT22;33568;45.286;9.900;2022-11-27T14:54:09;13.10;70.80
47805;DHT22;33568;45.286;9.900;2022-11-27T14:56:39;13.10;71.40
47805;DHT22;33568;45.286;9.900;2022-11-27T14:59:13;13.00;72.00
47805;DHT22;33568;45.286;9.900;2022-11-27T15:01:40;12.90;72.50
47805;DHT22;33568;45.286;9.900;2022-11-27T15:06:51;12.70;73.70
47805;DHT22;33568;45.286;9.900;2022-11-27T15:09:20;12.60;73.90
47805;DHT22;33568;45.286;9.900;2022-11-27T15:11:58;12.50;74.50
47805;DHT22;33568;45.286;9.900;2022-11-27T15:14:27;12.50;75.20
47805;DHT22;33568;45.286;9.900;2022-11-27T15:16:54;12.40;75.70
47805;DHT22;33568;45.286;9.900;2022-11-27T15:19:33;12.40;76.30
47805;DHT22;33568;45.286;9.900;2022-11-27T15:22:01;12.30;77.00
47805;DHT22;33568;45.286;9.900;2022-11-27T15:27:26;12.10;77.80
47805;DHT22;33568;45.286;9.900;2022-11-27T15:29:59;12.00;79.00
47805;DHT22;33568;45.286;9.900;2022-11-27T15:32:33;11.90;79.00
47805;DHT22;33568;45.286;9.900;2022-11-27T15:35:14;11.80;79.40
47805;DHT22;33568;45.286;9.900;2022-11-27T15:37:41;11.70;80.00
47805;DHT22;33568;45.286;9.900;2022-11-27T15:40:38;11.60;80.40
47805;DHT22;33568;45.286;9.900;2022-11-27T15:43:13;11.40;81.60
47805;DHT22;33568;45.286;9.900;2022-11-27T15:45:42;11.40;81.50
47805;DHT22;33568;45.286;9.900;2022-11-27T15:48:16;11.30;81.90
47805;DHT22;33568;45.286;9.900;2022-11-27T15:50:43;11.20;82.40
47805;DHT22;33568;45.286;9.900;2022-11-27T15:53:10;11.20;82.80
47805;DHT22;33568;45.286;9.900;2022-11-27T15:55:36;11.10;83.20
47805;DHT22;33568;45.286;9.900;2022-11-27T15:58:03;11.00;83.80
47805;DHT22;33568;45.286;9.900;2022-11-27T16:00:29;10.90;84.30
47805;DHT22;33568;45.286;9.900;2022-11-27T16:02:55;10.90;84.70
47805;DHT22;33568;45.286;9.900;2022-11-27T16:05:22;10.80;85.00
47805;DHT22;33568;45.286;9.900;2022-11-27T16:07:48;10.70;87.40
47805;DHT22;33568;45.286;9.900;2022-11-27T16:10:14;10.70;85.40
47805;DHT22;33568;45.286;9.900;2022-11-27T16:12:41;10.70;86.20
47805;DHT22;33568;45.286;9.900;2022-11-27T16:15:08;10.60;85.80
47805;DHT22;33568;45.286;9.900;2022-11-27T16:17:34;10.60;86.10
47805;DHT22;33568;45.286;9.900;2022-11-27T16:20:01;10.50;86.50
47805;DHT22;33568;45.286;9.900;2022-11-27T16:22:27;10.40;86.90
47805;DHT22;33568;45.286;9.900;2022-11-27T16:24:53;10.30;89.20
47805;DHT22;33568;45.286;9.900;2022-11-27T16:27:20;10.40;87.20
47805;DHT22;33568;45.286;9.900;2022-11-27T16:29:46;10.30;87.50
47805;DHT22;33568;45.286;9.900;2022-11-27T16:32:13;10.30;87.90
47805;DHT22;33568;45.286;9.900;2022-11-27T16:34:39;10.30;88.90
47805;DHT22;33568;45.286;9.900;2022-11-27T16:37:06;10.20;88.50
47805;DHT22;33568;45.286;9.900;2022-11-27T16:39:32;10.20;88.70
47805;DHT22;33568;45.286;9.900;2022-11-27T16:41:59;10.10;90.20
47805;DHT22;33568;45.286;9.900;2022-11-27T16:44:25;10.10;88.80
47805;DHT22;33568;45.286;9.900;2022-11-27T16:46:52;10.00;90.30
47805;DHT22;33568;45.286;9.900;2022-11-27T16:49:19;10.00;88.90
47805;DHT22;33568;45.286;9.900;2022-11-27T16:51:49;9.90;89.00
47805;DHT22;33568;45.286;9.900;2022-11-27T16:54:15;9.90;89.30
47805;DHT22;33568;45.286;9.900;2022-11-27T16:56:42;9.80;90.60
47805;DHT22;33568;45.286;9.900;2022-11-27T16:59:11;9.80;89.50
47805;DHT22;33568;45.286;9.900;2022-11-27T17:01:38;9.80;89.70
47805;DHT22;33568;45.286;9.900;2022-11-27T17:04:07;9.70;89.90
47805;DHT22;33568;45.286;9.900;2022-11-27T17:06:36;9.70;90.10
47805;DHT22;33568;45.286;9.900;2022-11-27T17:09:05;9.70;90.20
47805;DHT22;33568;45.286;9.900;2022-11-27T17:11:33;9.60;90.30
47805;DHT22;33568;45.286;9.900;2022-11-27T17:14:04;9.60;90.40
47805;DHT22;33568;45.286;9.900;2022-11-27T17:16:32;9.60;90.50
47805;DHT22;33568;45.286;9.900;2022-11-27T17:18:58;9.60;90.60
47805;DHT22;33568;45.286;9.900;2022-11-27T17:21:28;9.50;90.60
47805;DHT22;33568;45.286;9.900;2022-11-27T17:24:00;9.50;90.70
47805;DHT22;33568;45.286;9.900;2022-11-27T17:26:33;9.40;90.80
47805;DHT22;33568;45.286;9.900;2022-11-27T17:29:00;9.30;90.90
47805;DHT22;33568;45.286;9.900;2022-11-27T17:31:30;9.30;91.00
47805;DHT22;33568;45.286;9.900;2022-11-27T17:34:03;9.40;91.10
47805;DHT22;33568;45.286;9.900;2022-11-27T17:36:31;9.30;91.20
47805;DHT22;33568;45.286;9.900;2022-11-27T17:38:57;9.30;91.20
47805;DHT22;33568;45.286;9.900;2022-11-27T17:41:25;9.30;91.30
47805;DHT22;33568;45.286;9.900;2022-11-27T17:43:52;9.20;91.30
47805;DHT22;33568;45.286;9.900;2022-11-27T17:46:21;9.20;91.40
47805;DHT22;33568;45.286;9.900;2022-11-27T17:48:49;9.20;91.50
47805;DHT22;33568;45.286;9.900;2022-11-27T17:51:17;9.20;91.50
47805;DHT22;33568;45.286;9.900;2022-11-27T17:53:45;9.20;91.60
47805;DHT22;33568;45.286;9.900;2022-11-27T17:56:14;9.20;91.60
47805;DHT22;33568;45.286;9.900;2022-11-27T17:58:42;9.10;91.60
47805;DHT22;33568;45.286;9.900;2022-11-27T18:01:19;9.10;91.70
47805;DHT22;33568;45.286;9.900;2022-11-27T18:03:48;9.10;91.80
47805;DHT22;33568;45.286;9.900;2022-11-27T18:06:16;9.00;91.90
47805;DHT22;33568;45.286;9.900;2022-11-27T18:08:44;9.00;91.90
47805;DHT22;33568;45.286;9.900;2022-11-27T18:11:24;9.00;92.00